sensor_id;sensor_type;location;lat;lon;timestamp;temperature;humidity
64209;DHT22;50527;52.414;13.226;2022-09-16T00:00:18;13.00;92.30
64209;DHT22;50527;52.414;13.226;2022-09-16T00:02:43;13.00;92.70
64209;DHT22;50527;52.414;13.226;2022-09-16T00:05:09;13.00;92.70
64209;DHT22;50527;52.414;13.226;2022-09-16T00:07:34;13.00;92.60
64209;DHT22;50527;52.414;13.226;2022-09-16T00:10:00;13.00;92.80
64209;DHT22;50527;52.414;13.226;2022-09-16T00:12:26;12.90;93.00
64209;DHT22;50527;52.414;13.226;2022-09-16T00:14:52;12.90;93.00
64209;DHT22;50527;52.414;13.226;2022-09-16T00:17:18;12.90;93.60
64209;DHT22;50527;52.414;13.226;2022-09-16T00:19:44;12.80;93.30
64209;DHT22;50527;52.414;13.226;2022-09-16T00:22:09;12.80;93.50
64209;DHT22;50527;52.414;13.226;2022-09-16T00:24:35;12.80;93.70
64209;DHT22;50527;52.414;13.226;2022-09-16T00:27:00;12.80;94.00
64209;DHT22;50527;52.414;13.226;2022-09-16T00:29:26;12.80;94.10
64209;DHT22;50527;52.414;13.226;2022-09-16T00:31:51;12.70;94.20
64209;DHT22;50527;52.414;13.226;2022-09-16T00:34:17;12.70;94.00
64209;DHT22;50527;52.414;13.226;2022-09-16T00:36:42;12.70;94.40
64209;DHT22;50527;52.414;13.226;2022-09-16T00:39:08;12.70;94.70
64209;DHT22;50527;52.414;13.226;2022-09-16T00:41:33;12.60;95.00
64209;DHT22;50527;52.414;13.226;2022-09-16T00:46:47;12.60;95.50
64209;DHT22;50527;52.414;13.226;2022-09-16T00:49:20;12.60;95.40
64209;DHT22;50527;52.414;13.226;2022-09-16T00:51:50;12.60;95.50
64209;DHT22;50527;52.414;13.226;2022-09-16T00:54:17;12.50;95.70
64209;DHT22;50527;52.414;13.226;2022-09-16T00:56:44;12.50;95.90
64209;DHT22;50527;52.414;13.226;2022-09-16T00:59:18;12.50;96.60
64209;DHT22;50527;52.414;13.226;2022-09-16T01:01:44;12.50;96.70
64209;DHT22;50527;52.414;13.226;2022-09-16T01:04:31;12.50;96.80
64209;DHT22;50527;52.414;13.226;2022-09-16T01:06:59;12.50;96.90
64209;DHT22;50527;52.414;13.226;2022-09-16T01:09:26;12.50;96.70
64209;DHT22;50527;52.414;13.226;2022-09-16T01:11:52;12.40;97.30
64209;DHT22;50527;52.414;13.226;2022-09-16T01:14:18;12.40;97.40
64209;DHT22;50527;52.414;13.226;2022-09-16T01:20:32;12.40;97.80
64209;DHT22;50527;52.414;13.226;2022-09-16T01:23:10;12.40;98.20
64209;DHT22;50527;52.414;13.226;2022-09-16T01:28:41;12.30;98.50
64209;DHT22;50527;52.414;13.226;2022-09-16T01:34:05;12.20;98.80
64209;DHT22;50527;52.414;13.226;2022-09-16T01:37:00;12.20;99.00
64209;DHT22;50527;52.414;13.226;2022-09-16T01:39:37;12.20;99.40
64209;DHT22;50527;52.414;13.226;2022-09-16T01:45:35;12.20;99.90
64209;DHT22;50527;52.414;13.226;2022-09-16T01:48:13;12.10;99.80
64209;DHT22;50527;52.414;13.226;2022-09-16T01:50:56;12.20;99.90
64209;DHT22;50527;52.414;13.226;2022-09-16T01:53:31;12.10;99.80
64209;DHT22;50527;52.414;13.226;2022-09-16T01:56:02;12.10;99.90
64209;DHT22;50527;52.414;13.226;2022-09-16T01:58:46;12.10;99.90
64209;DHT22;50527;52.414;13.226;2022-09-16T02:01:35;12.10;99.90
64209;DHT22;50527;52.414;13.226;2022-09-16T02:04:07;12.10;99.90
64209;DHT22;50527;52.414;13.226;2022-09-16T02:06:35;12.00;99.90
64209;DHT22;50527;52.414;13.226;2022-09-16T02:09:13;12.10;99.90
64209;DHT22;50527;52.414;13.226;2022-09-16T02:11:42;12.00;99.90
64209;DHT22;50527;52.414;13.226;2022-09-16T02:14:15;12.00;99.90
64209;DHT22;50527;52.414;13.226;2022-09-16T02:16:59;12.00;99.90
64209;DHT22;50527;52.414;13.226;2022-09-16T02:19:29;12.00;99.90
64209;DHT22;50527;52.414;13.226;2022-09-16T02:21:58;12.10;99.90
64209;DHT22;50527;52.414;13.226;2022-09-16T02:24:25;12.10;99.90
64209;DHT22;50527;52.414;13.226;2022-09-16T02:26:58;12.10;99.90
64209;DHT22;50527;52.414;13.226;2022-09-16T02:29:26;12.00;99.90
64209;DHT22;50527;52.414;13.226;2022-09-16T02:31:57;12.00;99.90
64209;DHT22;50527;52.414;13.226;2022-09-16T02:34:36;12.00;99.90
64209;DHT22;50527;52.414;13.226;2022-09-16T02:37:10;12.00;99.90
64209;DHT22;50527;52.414;13.226;2022-09-16T02:39:38;11.90;99.90
64209;DHT22;50527;52.414;13.226;2022-09-16T02:42:04;11.90;99.90
64209;DHT22;50527;52.414;13.226;2022-09-16T02:44:30;11.90;99.90
64209;DHT22;50527;52.414;13.226;2022-09-16T02:46:58;11.90;99.90
64209;DHT22;50527;52.414;13.226;2022-09-16T02:49:48;11.90;99.90
64209;DHT22;50527;52.414;13.226;2022-09-16T02:55:02;11.90;99.90
64209;DHT22;50527;52.414;13.226;2022-09-16T02:57:30;11.90;99.90
64209;DHT22;50527;52.414;13.226;2022-09-16T02:59:56;11.80;99.90
64209;DHT22;50527;52.414;13.226;2022-09-16T03:02:21;11.80;99.90
64209;DHT22;50527;52.414;13.226;2022-09-16T03:04:47;11.90;99.90
64209;DHT22;50527;52.414;13.226;2022-09-16T03:07:13;11.80;99.90
64209;DHT22;50527;52.414;13.226;2022-09-16T03:09:42;11.80;99.90
64209;DHT22;50527;52.414;13.226;2022-09-16T03:21:15;11.80;99.90
64209;DHT22;50527;52.414;13.226;2022-09-16T03:23:58;11.80;99.90
64209;DHT22;50527;52.414;13.226;2022-09-16T03:26:48;11.80;99.90
64209;DHT22;50527;52.414;13.226;2022-09-16T03:29:32;11.70;99.90
64209;DHT22;50527;52.414;13.226;2022-09-16T03:32:19;11.70;99.90
64209;DHT22;50527;52.414;13.226;2022-09-16T03:34:52;11.80;99.90
64209;DHT22;50527;52.414;13.226;2022-09-16T03:37:20;11.80;99.90
64209;DHT22;50527;52.414;13.226;2022-09-16T03:39:51;11.80;99.90
64209;DHT22;50527;52.414;13.226;2022-09-16T03:42:18;11.80;99.90
64209;DHT22;50527;52.414;13.226;2022-09-16T03:44:44;11.80;99.90
64209;DHT22;50527;52.414;13.226;2022-09-16T03:47:10;11.80;99.90
64209;DHT22;50527;52.414;13.226;2022-09-16T03:49:36;11.80;99.90
64209;DHT22;50527;52.414;13.226;2022-09-16T03:52:02;11.80;99.90
64209;DHT22;50527;52.414;13.226;2022-09-16T03:54:30;11.80;99.90
64209;DHT22;50527;52.414;13.226;2022-09-16T03:56:55;11.90;99.90
64209;DHT22;50527;52.414;13.226;2022-09-16T03:59:21;11.80;99.90
64209;DHT22;50527;52.414;13.226;2022-09-16T04:01:46;11.90;99.90
64209;DHT22;50527;52.414;13.226;2022-09-16T04:04:12;11.90;99.90
64209;DHT22;50527;52.414;13.226;2022-09-16T04:06:37;11.90;99.90
64209;DHT22;50527;52.414;13.226;2022-09-16T04:09:04;11.90;99.90
64209;DHT22;50527;52.414;13.226;2022-09-16T04:11:31;11.90;99.90
64209;DHT22;50527;52.414;13.226;2022-09-16T04:13:57;11.90;99.90
64209;DHT22;50527;52.414;13.226;2022-09-16T04:16:24;11.90;99.90
64209;DHT22;50527;52.414;13.226;2022-09-16T04:18:49;11.80;99.90
64209;DHT22;50527;52.414;13.226;2022-09-16T04:21:16;11.90;99.90
64209;DHT22;50527;52.414;13.226;2022-09-16T04:23:41;11.80;99.90
64209;DHT22;50527;52.414;13.226;2022-09-16T04:26:07;11.80;99.90
64209;DHT22;50527;52.414;13.226;2022-09-16T04:28:33;11.80;99.90
64209;DHT22;50527;52.414;13.226;2022-09-16T04:31:00;11.80;99.90
64209;DHT22;50527;52.414;13.226;2022-09-16T04:33:28;11.70;99.90
64209;DHT22;50527;52.414;13.226;2022-09-16T04:35:59;11.70;99.90
64209;DHT22;50527;52.414;13.226;2022-09-16T04:38:25;11.80;99.90
64209;DHT22;50527;52.414;13.226;2022-09-16T04:40:50;11.70;99.90
64209;DHT22;50527;52.414;13.226;2022-09-16T04:43:18;11.70;99.90
64209;DHT22;50527;52.414;13.226;2022-09-16T04:45:44;11.70;99.90
64209;DHT22;50527;52.414;13.226;2022-09-16T04:48:09;11.70;99.90
64209;DHT22;50527;52.414;13.226;2022-09-16T04:50:34;11.70;99.90
64209;DHT22;50527;52.414;13.226;2022-09-16T04:53:00;11.70;99.90
64209;DHT22;50527;52.414;13.226;2022-09-16T04:55:25;11.70;99.90
64209;DHT22;50527;52.414;13.226;2022-09-16T04:57:51;11.70;99.90
64209;DHT22;50527;52.414;13.226;2022-09-16T05:00:16;11.70;99.90
64209;DHT22;50527;52.414;13.226;2022-09-16T05:02:45;11.70;99.90
64209;DHT22;50527;52.414;13.226;2022-09-16T05:05:11;11.70;99.90
64209;DHT22;50527;52.414;13.226;2022-09-16T05:07:36;11.70;99.90
64209;DHT22;50527;52.414;13.226;2022-09-16T05:10:03;11.70;99.90
64209;DHT22;50527;52.414;13.226;2022-09-16T05:12:28;11.70;99.90
64209;DHT22;50527;52.414;13.226;2022-09-16T05:14:53;11.70;99.90
64209;DHT22;50527;52.414;13.226;2022-09-16T05:17:19;11.70;99.90
64209;DHT22;50527;52.414;13.226;2022-09-16T05:19:44;11.60;99.90
64209;DHT22;50527;52.414;13.226;2022-09-16T05:22:10;11.60;99.90
64209;DHT22;50527;52.414;13.226;2022-09-16T05:24:35;11.60;99.90
64209;DHT22;50527;52.414;13.226;2022-09-16T05:27:01;11.70;99.90
64209;DHT22;50527;52.414;13.226;2022-09-16T05:29:27;11.60;99.90
64209;DHT22;50527;52.414;13.226;2022-09-16T05:31:53;11.70;99.90
64209;DHT22;50527;52.414;13.226;2022-09-16T05:34:20;11.80;99.90
64209;DHT22;50527;52.414;13.226;2022-09-16T05:36:46;11.80;99.90
64209;DHT22;50527;52.414;13.226;2022-09-16T05:39:14;11.80;99.90
64209;DHT22;50527;52.414;13.226;2022-09-16T05:41:45;11.90;99.90
64209;DHT22;50527;52.414;13.226;2022-09-16T05:44:11;12.00;99.90
64209;DHT22;50527;52.414;13.226;2022-09-16T05:46:38;12.00;99.70
64209;DHT22;50527;52.414;13.226;2022-09-16T05:49:07;12.00;99.00
64209;DHT22;50527;52.414;13.226;2022-09-16T05:51:33;12.10;99.00
64209;DHT22;50527;52.414;13.226;2022-09-16T05:53:58;12.00;98.50
64209;DHT22;50527;52.414;13.226;2022-09-16T05:56:27;12.10;99.00
64209;DHT22;50527;52.414;13.226;2022-09-16T05:58:54;12.20;98.90
64209;DHT22;50527;52.414;13.226;2022-09-16T06:01:22;12.20;98.60
64209;DHT22;50527;52.414;13.226;2022-09-16T06:03:50;12.30;97.50
64209;DHT22;50527;52.414;13.226;2022-09-16T06:06:22;12.30;97.40
64209;DHT22;50527;52.414;13.226;2022-09-16T06:08:48;12.40;97.20
64209;DHT22;50527;52.414;13.226;2022-09-16T06:11:15;12.40;96.60
64209;DHT22;50527;52.414;13.226;2022-09-16T06:13:41;12.40;96.60
64209;DHT22;50527;52.414;13.226;2022-09-16T06:16:08;12.40;96.40
64209;DHT22;50527;52.414;13.226;2022-09-16T06:18:34;12.50;96.50
64209;DHT22;50527;52.414;13.226;2022-09-16T06:21:09;12.60;96.20
64209;DHT22;50527;52.414;13.226;2022-09-16T06:23:35;12.60;95.70
64209;DHT22;50527;52.414;13.226;2022-09-16T06:26:04;12.80;95.70
64209;DHT22;50527;52.414;13.226;2022-09-16T06:28:30;12.90;95.10
64209;DHT22;50527;52.414;13.226;2022-09-16T06:31:06;12.90;94.40
64209;DHT22;50527;52.414;13.226;2022-09-16T06:33:32;12.90;94.50
64209;DHT22;50527;52.414;13.226;2022-09-16T06:36:02;13.00;93.40
64209;DHT22;50527;52.414;13.226;2022-09-16T06:38:28;12.90;93.40
64209;DHT22;50527;52.414;13.226;2022-09-16T06:40:58;12.90;93.40
64209;DHT22;50527;52.414;13.226;2022-09-16T06:43:24;12.90;93.90
64209;DHT22;50527;52.414;13.226;2022-09-16T06:45:49;13.00;94.30
64209;DHT22;50527;52.414;13.226;2022-09-16T06:48:15;13.10;93.40
64209;DHT22;50527;52.414;13.226;2022-09-16T06:50:40;13.20;92.80
64209;DHT22;50527;52.414;13.226;2022-09-16T06:53:06;13.30;92.10
64209;DHT22;50527;52.414;13.226;2022-09-16T06:55:31;13.40;92.10
64209;DHT22;50527;52.414;13.226;2022-09-16T06:57:56;13.40;91.90
64209;DHT22;50527;52.414;13.226;2022-09-16T07:00:22;13.50;91.40
64209;DHT22;50527;52.414;13.226;2022-09-16T07:02:47;13.50;91.00
64209;DHT22;50527;52.414;13.226;2022-09-16T07:05:13;13.70;90.70
64209;DHT22;50527;52.414;13.226;2022-09-16T07:07:39;13.80;90.40
64209;DHT22;50527;52.414;13.226;2022-09-16T07:10:06;14.00;89.00
64209;DHT22;50527;52.414;13.226;2022-09-16T07:12:31;13.90;87.20
64209;DHT22;50527;52.414;13.226;2022-09-16T07:14:57;13.80;88.90
64209;DHT22;50527;52.414;13.226;2022-09-16T07:17:22;13.90;88.90
64209;DHT22;50527;52.414;13.226;2022-09-16T07:19:51;14.20;86.40
64209;DHT22;50527;52.414;13.226;2022-09-16T07:22:17;14.30;85.00
64209;DHT22;50527;52.414;13.226;2022-09-16T07:24:42;14.40;83.20
64209;DHT22;50527;52.414;13.226;2022-09-16T07:27:08;14.40;82.90
64209;DHT22;50527;52.414;13.226;2022-09-16T07:29:33;14.50;82.10
64209;DHT22;50527;52.414;13.226;2022-09-16T07:31:59;15.80;80.70
64209;DHT22;50527;52.414;13.226;2022-09-16T07:34:25;16.40;78.60
64209;DHT22;50527;52.414;13.226;2022-09-16T07:36:50;19.70;61.20
64209;DHT22;50527;52.414;13.226;2022-09-16T07:39:17;18.20;61.70
64209;DHT22;50527;52.414;13.226;2022-09-16T07:41:44;17.20;65.40
64209;DHT22;50527;52.414;13.226;2022-09-16T07:44:12;16.40;68.10
64209;DHT22;50527;52.414;13.226;2022-09-16T07:46:38;16.30;70.50
64209;DHT22;50527;52.414;13.226;2022-09-16T07:49:10;15.80;71.60
64209;DHT22;50527;52.414;13.226;2022-09-16T07:51:48;15.50;73.40
64209;DHT22;50527;52.414;13.226;2022-09-16T07:54:15;15.20;75.30
64209;DHT22;50527;52.414;13.226;2022-09-16T07:56:41;15.00;76.10
64209;DHT22;50527;52.414;13.226;2022-09-16T07:59:12;14.70;77.80
64209;DHT22;50527;52.414;13.226;2022-09-16T08:01:37;14.60;80.00
64209;DHT22;50527;52.414;13.226;2022-09-16T08:04:03;14.60;80.70
64209;DHT22;50527;52.414;13.226;2022-09-16T08:06:30;14.60;80.60
64209;DHT22;50527;52.414;13.226;2022-09-16T08:08:58;14.40;80.50
64209;DHT22;50527;52.414;13.226;2022-09-16T08:11:25;14.50;82.00
64209;DHT22;50527;52.414;13.226;2022-09-16T08:13:51;14.50;82.40
64209;DHT22;50527;52.414;13.226;2022-09-16T08:16:19;14.60;81.70
64209;DHT22;50527;52.414;13.226;2022-09-16T08:18:47;14.70;79.50
64209;DHT22;50527;52.414;13.226;2022-09-16T08:21:22;14.60;78.20
64209;DHT22;50527;52.414;13.226;2022-09-16T08:23:48;14.50;80.00
64209;DHT22;50527;52.414;13.226;2022-09-16T08:26:15;14.50;79.50
64209;DHT22;50527;52.414;13.226;2022-09-16T08:28:43;14.60;79.00
64209;DHT22;50527;52.414;13.226;2022-09-16T08:31:09;14.80;78.40
64209;DHT22;50527;52.414;13.226;2022-09-16T08:33:34;15.00;76.20
64209;DHT22;50527;52.414;13.226;2022-09-16T08:36:03;15.10;75.30
64209;DHT22;50527;52.414;13.226;2022-09-16T08:38:30;15.10;77.30
64209;DHT22;50527;52.414;13.226;2022-09-16T08:43:42;15.20;75.90
64209;DHT22;50527;52.414;13.226;2022-09-16T08:46:21;15.20;74.70
64209;DHT22;50527;52.414;13.226;2022-09-16T08:49:06;15.40;72.50
64209;DHT22;50527;52.414;13.226;2022-09-16T08:51:37;15.50;72.40
64209;DHT22;50527;52.414;13.226;2022-09-16T08:54:08;15.50;70.00
64209;DHT22;50527;52.414;13.226;2022-09-16T08:56:36;15.40;70.10
64209;DHT22;50527;52.414;13.226;2022-09-16T08:59:09;15.40;70.00
64209;DHT22;50527;52.414;13.226;2022-09-16T09:02:17;15.40;70.60
64209;DHT22;50527;52.414;13.226;2022-09-16T09:04:45;15.90;69.30
64209;DHT22;50527;52.414;13.226;2022-09-16T09:07:22;16.40;65.30
64209;DHT22;50527;52.414;13.226;2022-09-16T09:10:02;16.90;65.30
64209;DHT22;50527;52.414;13.226;2022-09-16T09:12:47;17.00;62.40
64209;DHT22;50527;52.414;13.226;2022-09-16T09:21:18;16.90;63.20
64209;DHT22;50527;52.414;13.226;2022-09-16T09:23:56;17.30;62.50
64209;DHT22;50527;52.414;13.226;2022-09-16T09:26:48;17.90;59.80
64209;DHT22;50527;52.414;13.226;2022-09-16T09:31:53;18.60;58.00
64209;DHT22;50527;52.414;13.226;2022-09-16T09:37:37;19.30;52.90
64209;DHT22;50527;52.414;13.226;2022-09-16T09:45:28;21.60;46.80
64209;DHT22;50527;52.414;13.226;2022-09-16T09:47:58;22.80;44.10
64209;DHT22;50527;52.414;13.226;2022-09-16T09:50:36;23.30;42.00
64209;DHT22;50527;52.414;13.226;2022-09-16T09:53:19;23.20;42.40
64209;DHT22;50527;52.414;13.226;2022-09-16T09:58:40;23.90;38.70
64209;DHT22;50527;52.414;13.226;2022-09-16T10:01:08;23.90;38.10
64209;DHT22;50527;52.414;13.226;2022-09-16T10:03:35;23.50;38.80
64209;DHT22;50527;52.414;13.226;2022-09-16T10:06:02;22.60;40.20
64209;DHT22;50527;52.414;13.226;2022-09-16T10:08:35;21.10;42.10
64209;DHT22;50527;52.414;13.226;2022-09-16T10:11:14;19.80;45.50
64209;DHT22;50527;52.414;13.226;2022-09-16T10:13:51;19.30;47.50
64209;DHT22;50527;52.414;13.226;2022-09-16T10:16:19;19.80;46.50
64209;DHT22;50527;52.414;13.226;2022-09-16T10:19:05;19.60;47.40
64209;DHT22;50527;52.414;13.226;2022-09-16T10:21:45;19.50;46.40
64209;DHT22;50527;52.414;13.226;2022-09-16T10:26:55;18.80;46.80
64209;DHT22;50527;52.414;13.226;2022-09-16T10:29:21;18.30;47.80
64209;DHT22;50527;52.414;13.226;2022-09-16T10:31:47;18.50;48.80
64209;DHT22;50527;52.414;13.226;2022-09-16T10:34:33;18.80;47.50
64209;DHT22;50527;52.414;13.226;2022-09-16T10:37:12;18.60;47.50
64209;DHT22;50527;52.414;13.226;2022-09-16T10:39:44;18.20;47.40
64209;DHT22;50527;52.414;13.226;2022-09-16T10:42:25;17.60;48.50
64209;DHT22;50527;52.414;13.226;2022-09-16T10:44:54;17.30;50.80
64209;DHT22;50527;52.414;13.226;2022-09-16T10:47:25;17.00;51.50
64209;DHT22;50527;52.414;13.226;2022-09-16T10:49:54;17.20;51.30
64209;DHT22;50527;52.414;13.226;2022-09-16T10:52:24;17.60;50.90
64209;DHT22;50527;52.414;13.226;2022-09-16T10:54:49;17.70;50.00
64209;DHT22;50527;52.414;13.226;2022-09-16T11:00:05;17.10;51.50
64209;DHT22;50527;52.414;13.226;2022-09-16T11:05:59;17.30;52.60
64209;DHT22;50527;52.414;13.226;2022-09-16T11:14:10;18.60;47.00
64209;DHT22;50527;52.414;13.226;2022-09-16T11:16:59;18.80;45.70
64209;DHT22;50527;52.414;13.226;2022-09-16T11:19:34;19.00;43.80
64209;DHT22;50527;52.414;13.226;2022-09-16T11:22:34;19.10;44.50
64209;DHT22;50527;52.414;13.226;2022-09-16T11:25:37;19.10;45.40
64209;DHT22;50527;52.414;13.226;2022-09-16T11:31:04;18.30;46.00
64209;DHT22;50527;52.414;13.226;2022-09-16T11:42:24;17.70;48.20
64209;DHT22;50527;52.414;13.226;2022-09-16T11:47:59;17.70;46.80
64209;DHT22;50527;52.414;13.226;2022-09-16T11:56:11;17.40;48.10
64209;DHT22;50527;52.414;13.226;2022-09-16T12:01:29;17.80;47.80
64209;DHT22;50527;52.414;13.226;2022-09-16T12:06:39;18.60;46.40
64209;DHT22;50527;52.414;13.226;2022-09-16T12:09:16;18.80;45.20
64209;DHT22;50527;52.414;13.226;2022-09-16T12:11:49;18.70;44.00
64209;DHT22;50527;52.414;13.226;2022-09-16T12:14:23;18.70;43.60
64209;DHT22;50527;52.414;13.226;2022-09-16T12:16:57;18.80;43.50
64209;DHT22;50527;52.414;13.226;2022-09-16T12:19:27;18.90;44.00
64209;DHT22;50527;52.414;13.226;2022-09-16T12:22:07;18.80;43.10
64209;DHT22;50527;52.414;13.226;2022-09-16T12:27:08;18.30;45.00
64209;DHT22;50527;52.414;13.226;2022-09-16T12:30:45;18.20;45.70
64209;DHT22;50527;52.414;13.226;2022-09-16T12:33:04;18.30;44.90
64209;DHT22;50527;52.414;13.226;2022-09-16T12:35:37;18.40;45.10
64209;DHT22;50527;52.414;13.226;2022-09-16T12:38:03;18.20;44.80
64209;DHT22;50527;52.414;13.226;2022-09-16T12:43:49;17.80;46.30
64209;DHT22;50527;52.414;13.226;2022-09-16T12:46:51;17.60;46.00
64209;DHT22;50527;52.414;13.226;2022-09-16T12:55:34;18.70;42.20
64209;DHT22;50527;52.414;13.226;2022-09-16T13:03:45;18.60;41.70
64209;DHT22;50527;52.414;13.226;2022-09-16T13:06:27;18.70;42.50
64209;DHT22;50527;52.414;13.226;2022-09-16T13:08:54;18.70;41.80
64209;DHT22;50527;52.414;13.226;2022-09-16T13:11:22;18.80;42.00
64209;DHT22;50527;52.414;13.226;2022-09-16T13:13:52;18.70;42.10
64209;DHT22;50527;52.414;13.226;2022-09-16T13:16:28;18.80;40.80
64209;DHT22;50527;52.414;13.226;2022-09-16T13:19:24;18.90;41.40
64209;DHT22;50527;52.414;13.226;2022-09-16T13:21:59;18.90;40.10
64209;DHT22;50527;52.414;13.226;2022-09-16T13:24:42;19.10;40.50
64209;DHT22;50527;52.414;13.226;2022-09-16T13:27:23;19.00;39.30
64209;DHT22;50527;52.414;13.226;2022-09-16T13:29:49;19.00;39.90
64209;DHT22;50527;52.414;13.226;2022-09-16T13:37:50;18.80;41.10
64209;DHT22;50527;52.414;13.226;2022-09-16T13:42:50;18.80;41.50
64209;DHT22;50527;52.414;13.226;2022-09-16T13:45:31;18.50;42.10
64209;DHT22;50527;52.414;13.226;2022-09-16T13:48:08;18.40;42.80
64209;DHT22;50527;52.414;13.226;2022-09-16T13:50:35;18.10;43.10
64209;DHT22;50527;52.414;13.226;2022-09-16T13:53:25;18.20;42.80
64209;DHT22;50527;52.414;13.226;2022-09-16T13:55:52;18.30;42.80
64209;DHT22;50527;52.414;13.226;2022-09-16T13:58:30;18.50;41.20
64209;DHT22;50527;52.414;13.226;2022-09-16T14:01:20;18.70;41.30
64209;DHT22;50527;52.414;13.226;2022-09-16T14:04:00;18.80;40.40
64209;DHT22;50527;52.414;13.226;2022-09-16T14:10:01;18.60;38.10
64209;DHT22;50527;52.414;13.226;2022-09-16T14:15:06;18.70;37.70
64209;DHT22;50527;52.414;13.226;2022-09-16T14:20:19;18.50;38.40
64209;DHT22;50527;52.414;13.226;2022-09-16T14:22:45;18.50;39.60
64209;DHT22;50527;52.414;13.226;2022-09-16T14:25:43;18.50;40.10
64209;DHT22;50527;52.414;13.226;2022-09-16T14:28:25;18.40;40.20
64209;DHT22;50527;52.414;13.226;2022-09-16T14:30:58;18.20;40.40
64209;DHT22;50527;52.414;13.226;2022-09-16T14:33:27;18.10;41.40
64209;DHT22;50527;52.414;13.226;2022-09-16T14:35:54;18.20;41.80
64209;DHT22;50527;52.414;13.226;2022-09-16T14:38:29;18.20;42.10
64209;DHT22;50527;52.414;13.226;2022-09-16T14:40:55;18.30;42.20
64209;DHT22;50527;52.414;13.226;2022-09-16T14:43:21;18.30;41.60
64209;DHT22;50527;52.414;13.226;2022-09-16T14:45:53;18.40;41.10
64209;DHT22;50527;52.414;13.226;2022-09-16T14:48:27;18.40;41.60
64209;DHT22;50527;52.414;13.226;2022-09-16T14:50:55;18.50;41.50
64209;DHT22;50527;52.414;13.226;2022-09-16T14:53:24;18.50;41.60
64209;DHT22;50527;52.414;13.226;2022-09-16T14:55:50;18.50;42.40
64209;DHT22;50527;52.414;13.226;2022-09-16T14:58:16;18.60;41.30
64209;DHT22;50527;52.414;13.226;2022-09-16T15:00:46;18.50;42.10
64209;DHT22;50527;52.414;13.226;2022-09-16T15:03:22;18.50;41.10
64209;DHT22;50527;52.414;13.226;2022-09-16T15:05:49;18.50;41.10
64209;DHT22;50527;52.414;13.226;2022-09-16T15:08:22;18.40;41.10
64209;DHT22;50527;52.414;13.226;2022-09-16T15:10:55;18.30;42.00
64209;DHT22;50527;52.414;13.226;2022-09-16T15:13:24;18.10;42.30
64209;DHT22;50527;52.414;13.226;2022-09-16T15:15:57;18.00;42.40
64209;DHT22;50527;52.414;13.226;2022-09-16T15:18:33;17.80;43.20
64209;DHT22;50527;52.414;13.226;2022-09-16T15:21:09;17.80;43.40
64209;DHT22;50527;52.414;13.226;2022-09-16T15:23:37;17.80;42.20
64209;DHT22;50527;52.414;13.226;2022-09-16T15:26:22;17.80;41.90
64209;DHT22;50527;52.414;13.226;2022-09-16T15:28:59;17.90;41.40
64209;DHT22;50527;52.414;13.226;2022-09-16T15:31:38;18.00;41.50
64209;DHT22;50527;52.414;13.226;2022-09-16T15:34:19;18.20;41.40
64209;DHT22;50527;52.414;13.226;2022-09-16T15:36:51;18.20;40.80
64209;DHT22;50527;52.414;13.226;2022-09-16T15:41:49;18.20;41.00
64209;DHT22;50527;52.414;13.226;2022-09-16T15:44:21;18.20;41.20
64209;DHT22;50527;52.414;13.226;2022-09-16T15:46:49;18.20;40.30
64209;DHT22;50527;52.414;13.226;2022-09-16T15:49:16;18.10;40.90
64209;DHT22;50527;52.414;13.226;2022-09-16T15:54:52;18.00;41.00
64209;DHT22;50527;52.414;13.226;2022-09-16T15:57:31;17.90;41.00
64209;DHT22;50527;52.414;13.226;2022-09-16T16:00:03;17.60;40.80
64209;DHT22;50527;52.414;13.226;2022-09-16T16:02:53;17.40;40.90
64209;DHT22;50527;52.414;13.226;2022-09-16T16:05:24;17.20;42.00
64209;DHT22;50527;52.414;13.226;2022-09-16T16:07:52;17.10;41.70
64209;DHT22;50527;52.414;13.226;2022-09-16T16:10:26;17.00;42.00
64209;DHT22;50527;52.414;13.226;2022-09-16T16:12:54;17.00;42.70
64209;DHT22;50527;52.414;13.226;2022-09-16T16:15:24;16.90;42.90
64209;DHT22;50527;52.414;13.226;2022-09-16T16:17:51;17.00;42.40
64209;DHT22;50527;52.414;13.226;2022-09-16T16:20:19;17.00;42.80
64209;DHT22;50527;52.414;13.226;2022-09-16T16:22:45;16.90;43.30
64209;DHT22;50527;52.414;13.226;2022-09-16T16:25:11;16.90;43.30
64209;DHT22;50527;52.414;13.226;2022-09-16T16:27:38;16.90;43.10
64209;DHT22;50527;52.414;13.226;2022-09-16T16:30:04;17.00;43.60
64209;DHT22;50527;52.414;13.226;2022-09-16T16:32:30;17.10;43.40
64209;DHT22;50527;52.414;13.226;2022-09-16T16:34:56;17.20;43.60
64209;DHT22;50527;52.414;13.226;2022-09-16T16:37:23;17.10;43.80
64209;DHT22;50527;52.414;13.226;2022-09-16T16:39:49;17.10;44.10
64209;DHT22;50527;52.414;13.226;2022-09-16T16:42:15;17.10;44.50
64209;DHT22;50527;52.414;13.226;2022-09-16T16:44:41;17.10;44.40
64209;DHT22;50527;52.414;13.226;2022-09-16T16:47:07;17.00;44.20
64209;DHT22;50527;52.414;13.226;2022-09-16T16:49:33;16.90;43.00
64209;DHT22;50527;52.414;13.226;2022-09-16T16:51:59;16.80;43.60
64209;DHT22;50527;52.414;13.226;2022-09-16T16:54:26;16.70;43.70
64209;DHT22;50527;52.414;13.226;2022-09-16T16:56:53;16.50;44.00
64209;DHT22;50527;52.414;13.226;2022-09-16T16:59:19;16.40;43.80
64209;DHT22;50527;52.414;13.226;2022-09-16T17:01:45;16.40;44.30
64209;DHT22;50527;52.414;13.226;2022-09-16T17:04:12;16.20;44.80
64209;DHT22;50527;52.414;13.226;2022-09-16T17:06:38;16.20;45.30
64209;DHT22;50527;52.414;13.226;2022-09-16T17:09:06;16.10;46.30
64209;DHT22;50527;52.414;13.226;2022-09-16T17:11:33;16.00;46.20
64209;DHT22;50527;52.414;13.226;2022-09-16T17:14:01;15.90;46.70
64209;DHT22;50527;52.414;13.226;2022-09-16T17:16:27;15.80;47.10
64209;DHT22;50527;52.414;13.226;2022-09-16T17:18:54;15.80;47.70
64209;DHT22;50527;52.414;13.226;2022-09-16T17:21:22;15.60;47.60
64209;DHT22;50527;52.414;13.226;2022-09-16T17:23:48;15.60;48.80
64209;DHT22;50527;52.414;13.226;2022-09-16T17:26:15;15.50;48.50
64209;DHT22;50527;52.414;13.226;2022-09-16T17:28:43;15.50;48.80
64209;DHT22;50527;52.414;13.226;2022-09-16T17:31:11;15.40;48.70
64209;DHT22;50527;52.414;13.226;2022-09-16T17:33:38;15.40;49.40
64209;DHT22;50527;52.414;13.226;2022-09-16T17:36:05;15.30;49.20
64209;DHT22;50527;52.414;13.226;2022-09-16T17:38:31;15.20;49.50
64209;DHT22;50527;52.414;13.226;2022-09-16T17:41:05;15.10;50.00
64209;DHT22;50527;52.414;13.226;2022-09-16T17:43:31;15.10;50.30
64209;DHT22;50527;52.414;13.226;2022-09-16T17:45:58;15.00;50.30